createdAt,value
2018-06-11T00:01:03.312Z,18.18
2018-06-11T00:06:03.767Z,18.18
2018-06-11T00:11:03.460Z,18.18
2018-06-11T00:16:03.682Z,18.08
2018-06-11T00:21:03.153Z,17.98
2018-06-11T00:26:03.503Z,18.08
2018-06-11T00:31:03.710Z,18.08
2018-06-11T00:36:03.223Z,17.88
2018-06-11T00:41:03.787Z,17.78
2018-06-11T00:46:03.045Z,17.68
2018-06-11T00:51:03.530Z,17.58
2018-06-11T00:56:03.789Z,17.38
2018-06-11T01:01:03.008Z,17.58
2018-06-11T01:06:03.565Z,17.68
2018-06-11T01:11:03.135Z,17.38
2018-06-11T01:16:03.383Z,17.38
2018-06-11T01:21:03.864Z,17.38
2018-06-11T01:26:03.145Z,17.28
2018-06-11T01:31:03.388Z,17.28
2018-06-11T01:36:03.865Z,17.18
2018-06-11T01:41:03.480Z,17.08
2018-06-11T01:46:03.811Z,17.18
2018-06-11T01:51:03.331Z,17.28
2018-06-11T01:56:03.479Z,16.88
2018-06-11T02:01:03.735Z,16.88
2018-06-11T02:06:03.215Z,16.88
2018-06-11T02:11:03.882Z,16.88
2018-06-11T02:16:03.176Z,16.68
2018-06-11T02:21:03.653Z,16.78
2018-06-11T02:26:03.881Z,16.78
2018-06-11T02:31:03.158Z,16.68
2018-06-11T02:36:03.601Z,16.58
2018-06-11T02:41:03.227Z,16.68
2018-06-11T02:46:03.505Z,16.68
2018-06-11T02:51:03.956Z,16.58
2018-06-11T02:56:03.179Z,16.68
2018-06-11T03:01:03.463Z,16.68
2018-06-11T03:06:03.939Z,16.48
2018-06-11T03:11:03.538Z,16.48
2018-06-11T03:16:03.822Z,16.48
2018-06-11T03:21:04.369Z,16.48
2018-06-11T03:26:03.539Z,16.98
2018-06-11T03:31:03.832Z,16.98
2018-06-11T03:36:03.336Z,17.08
2018-06-11T03:41:03.920Z,16.88
2018-06-11T03:46:03.205Z,16.88
2018-06-11T03:51:03.644Z,16.78
2018-06-11T03:56:03.862Z,16.88
2018-06-11T04:01:03.161Z,16.88
2018-06-11T04:06:03.609Z,16.88
2018-06-11T04:11:03.543Z,16.78
2018-06-11T04:16:03.533Z,16.88
2018-06-11T04:21:04.005Z,16.68
2018-06-11T04:26:03.892Z,16.58
2018-06-11T04:31:03.214Z,16.78
2018-06-11T04:36:03.671Z,16.68
2018-06-11T04:41:03.260Z,16.58
2018-06-11T04:46:03.550Z,16.48
2018-06-11T04:51:04.013Z,16.48
2018-06-11T04:56:03.248Z,16.38
2018-06-11T05:01:03.511Z,16.38
2018-06-11T05:06:03.996Z,16.38
2018-06-11T05:11:03.584Z,16.48
2018-06-11T05:16:03.842Z,16.48
2018-06-11T05:21:03.350Z,16.68
2018-06-11T05:26:03.561Z,16.68
2018-06-11T05:31:03.900Z,16.98
2018-06-11T05:36:03.358Z,16.98
2018-06-11T05:41:03.900Z,17.08
2018-06-11T05:46:03.197Z,17.08
2018-06-11T05:51:03.682Z,16.68
2018-06-11T05:56:03.927Z,16.78
2018-06-11T06:01:03.229Z,16.78
2018-06-11T06:06:03.708Z,16.88
2018-06-11T06:11:03.403Z,16.78
2018-06-11T06:16:03.569Z,16.88
2018-06-11T06:21:03.098Z,16.98
2018-06-11T06:26:03.313Z,17.18
2018-06-11T06:31:03.595Z,17.48
2018-06-11T06:36:03.230Z,17.38
2018-06-11T06:41:03.658Z,17.38
2018-06-11T06:46:02.958Z,17.28
2018-06-11T06:51:03.434Z,17.48
2018-06-11T06:56:03.639Z,17.68
2018-06-11T07:01:02.961Z,17.58
2018-06-11T07:06:03.408Z,17.88
2018-06-11T07:11:02.988Z,17.68
2018-06-11T07:16:03.287Z,17.58
2018-06-11T07:21:03.765Z,17.68
2018-06-11T07:26:02.995Z,17.78
2018-06-11T07:31:03.287Z,18.38
2018-06-11T07:36:03.714Z,18.28
2018-06-11T07:41:03.720Z,18.58
2018-06-11T07:46:03.602Z,19.08
2018-06-11T07:51:03.068Z,19.08
2018-06-11T07:56:03.277Z,18.78
2018-06-11T08:01:03.533Z,19.08
2018-06-11T08:06:04.141Z,19.08
2018-06-11T08:11:03.632Z,19.28
2018-06-11T08:16:02.957Z,19.38
2018-06-11T08:21:03.447Z,19.38
2018-06-11T08:26:03.653Z,19.38
2018-06-11T08:31:02.993Z,19.38
2018-06-11T08:36:03.421Z,19.38
2018-06-11T08:41:03.027Z,19.28
2018-06-11T08:46:03.294Z,19.38
2018-06-11T08:51:03.719Z,19.68
2018-06-11T08:56:02.999Z,19.68
2018-06-11T09:01:03.360Z,19.78
2018-06-11T09:06:03.731Z,19.98
2018-06-11T09:11:03.307Z,20.68
2018-06-11T09:16:03.576Z,20.78
2018-06-11T09:21:03.123Z,20.28
2018-06-11T09:26:03.319Z,20.88
2018-06-11T09:31:03.786Z,20.88
2018-06-11T09:36:03.071Z,20.58
2018-06-11T09:41:03.650Z,20.78
2018-06-11T09:46:02.939Z,20.78
2018-06-11T09:51:03.418Z,21.34
2018-06-11T09:56:03.636Z,21.40
2018-06-11T10:01:02.947Z,21.22
2018-06-11T10:06:03.417Z,21.22
2018-06-11T10:11:02.998Z,21.84
2018-06-11T10:16:03.524Z,21.54
2018-06-11T10:21:03.802Z,21.97
2018-06-11T10:26:03.021Z,22.27
2018-06-11T10:31:03.287Z,21.75
2018-06-11T10:36:03.779Z,21.98
2018-06-11T10:41:03.373Z,22.95
2018-06-11T10:46:03.630Z,23.01
2018-06-11T10:51:03.154Z,22.94
2018-06-11T10:56:03.330Z,22.82
2018-06-11T11:01:03.646Z,22.70
2018-06-11T11:06:03.112Z,22.24
2018-06-11T11:11:03.711Z,22.80
2018-06-11T11:16:02.973Z,22.25
2018-06-11T11:21:03.477Z,23.25
2018-06-11T11:26:03.702Z,23.27
2018-06-11T11:31:03.022Z,22.77
2018-06-11T11:36:03.491Z,22.85
2018-06-11T11:41:03.060Z,23.04
2018-06-11T11:46:03.362Z,23.04
2018-06-11T11:51:03.953Z,23.54
2018-06-11T11:56:03.033Z,22.81
2018-06-11T12:01:03.336Z,23.08
2018-06-11T12:06:03.764Z,23.30
2018-06-11T12:11:03.419Z,23.31
2018-06-11T12:16:03.666Z,23.35
2018-06-11T12:21:03.191Z,23.41
2018-06-11T12:26:03.386Z,23.50
2018-06-11T12:31:03.716Z,23.50
2018-06-11T12:36:03.193Z,23.73
2018-06-11T12:41:03.785Z,23.43
2018-06-11T12:46:03.076Z,23.52
2018-06-11T12:51:03.517Z,23.40
2018-06-11T12:56:03.699Z,23.30
2018-06-11T13:01:03.024Z,23.74
2018-06-11T13:06:03.460Z,23.47
2018-06-11T13:11:03.092Z,23.06
2018-06-11T13:16:03.389Z,23.28
2018-06-11T13:21:03.863Z,23.43
2018-06-11T13:26:03.075Z,23.16
2018-06-11T13:31:03.384Z,23.33
2018-06-11T13:36:03.818Z,23.30
2018-06-11T13:41:03.438Z,23.32
2018-06-11T13:46:03.715Z,22.95
2018-06-11T13:51:03.204Z,22.91
2018-06-11T13:56:03.453Z,23.13
2018-06-11T14:01:03.734Z,22.51
2018-06-11T14:06:03.220Z,22.69
2018-06-11T14:11:03.833Z,22.74
2018-06-11T14:16:03.140Z,22.59
2018-06-11T14:21:03.676Z,22.86
2018-06-11T14:26:03.848Z,22.46
2018-06-11T14:31:03.173Z,22.66
2018-06-11T14:36:03.657Z,22.49
2018-06-11T14:41:03.394Z,22.45
2018-06-11T14:46:03.518Z,22.29
2018-06-11T14:51:04.005Z,22.29
2018-06-11T14:56:03.244Z,22.09
2018-06-11T15:01:03.483Z,22.09
2018-06-11T15:06:03.934Z,22.09
2018-06-11T15:11:03.552Z,22.09
2018-06-11T15:16:03.815Z,22.09
2018-06-11T15:21:03.348Z,22.09
2018-06-11T15:26:03.552Z,22.45
2018-06-11T15:31:03.849Z,22.35
2018-06-11T15:36:03.329Z,22.37
2018-06-11T15:41:02.927Z,22.24
2018-06-11T15:46:03.229Z,22.03
2018-06-11T15:51:03.698Z,22.20
2018-06-11T15:56:03.883Z,22.02
2018-06-11T16:01:03.209Z,21.94
2018-06-11T16:06:03.648Z,21.30
2018-06-11T16:11:03.252Z,21.70
2018-06-11T16:16:03.510Z,21.80
2018-06-11T16:21:04.039Z,21.80
2018-06-11T16:26:03.278Z,21.35
2018-06-11T16:31:03.599Z,21.19
2018-06-11T16:36:04.005Z,21.19
2018-06-11T16:41:03.580Z,21.12
2018-06-11T16:46:03.886Z,21.12
2018-06-11T16:51:03.348Z,21.12
2018-06-11T16:56:03.534Z,20.83
2018-06-11T17:01:03.832Z,20.73
2018-06-11T17:06:03.343Z,20.77
2018-06-11T17:11:03.872Z,20.77
2018-06-11T17:16:03.190Z,20.82
2018-06-11T17:21:03.656Z,20.60
2018-06-11T17:26:03.885Z,20.47
2018-06-11T17:31:03.208Z,20.67
2018-06-11T17:36:03.679Z,20.72
2018-06-11T17:41:03.287Z,20.56
2018-06-11T17:46:03.571Z,20.51
2018-06-11T17:51:03.995Z,20.54
2018-06-11T17:56:03.238Z,20.58
2018-06-11T18:01:03.518Z,20.58
2018-06-11T18:06:04.005Z,20.58
2018-06-11T18:11:03.608Z,20.35
2018-06-11T18:16:03.867Z,20.35
2018-06-11T18:21:03.399Z,20.35
2018-06-11T18:26:03.636Z,20.35
2018-06-11T18:31:03.887Z,20.35
2018-06-11T18:36:03.379Z,20.35
2018-06-11T18:41:03.048Z,20.35
2018-06-11T18:46:03.287Z,20.35
2018-06-11T18:51:03.693Z,20.35
2018-06-11T18:56:03.932Z,20.35
2018-06-11T19:01:03.197Z,20.35
2018-06-11T19:06:03.719Z,20.35
2018-06-11T19:11:03.267Z,19.52
2018-06-11T19:16:03.528Z,19.52
2018-06-11T19:21:03.060Z,19.52
2018-06-11T19:26:03.269Z,19.52
2018-06-11T19:31:03.534Z,19.52
2018-06-11T19:36:03.960Z,19.36
2018-06-11T19:41:03.599Z,19.36
2018-06-11T19:46:03.882Z,19.36
2018-06-11T19:51:03.573Z,19.36
2018-06-11T19:56:03.539Z,19.36
2018-06-11T20:01:03.843Z,19.36
2018-06-11T20:06:03.280Z,19.36
2018-06-11T20:11:03.898Z,19.23
2018-06-11T20:16:03.199Z,19.23
2018-06-11T20:21:03.689Z,19.23
2018-06-11T20:26:03.908Z,19.23
2018-06-11T20:31:03.218Z,19.23
2018-06-11T20:36:03.666Z,19.23
2018-06-11T20:41:03.255Z,19.23
2018-06-11T20:46:03.628Z,19.23
2018-06-11T20:51:03.066Z,19.23
2018-06-11T20:56:03.316Z,19.23
2018-06-11T21:01:03.569Z,19.23
2018-06-11T21:06:04.053Z,18.79
2018-06-11T21:11:03.609Z,18.79
2018-06-11T21:16:03.992Z,18.79
2018-06-11T21:21:03.430Z,18.79
2018-06-11T21:26:03.637Z,18.79
2018-06-11T21:31:03.914Z,18.79
2018-06-11T21:36:03.382Z,18.26
2018-06-11T21:41:02.967Z,18.26
2018-06-11T21:46:03.244Z,18.26
2018-06-11T21:51:03.759Z,18.26
2018-06-11T21:56:02.982Z,18.26
2018-06-11T22:01:03.258Z,18.26
2018-06-11T22:06:03.724Z,18.19
2018-06-11T22:11:03.337Z,18.19
2018-06-11T22:16:03.577Z,18.19
2018-06-11T22:21:03.057Z,18.19
2018-06-11T22:26:03.272Z,18.19
2018-06-11T22:31:03.593Z,18.19
2018-06-11T22:36:03.075Z,18.22
2018-06-11T22:41:03.624Z,18.08
2018-06-11T22:46:03.926Z,18.08
2018-06-11T22:51:03.367Z,18.08
2018-06-11T22:56:03.627Z,17.88
2018-06-11T23:01:03.885Z,17.88
2018-06-11T23:06:03.466Z,17.88
2018-06-11T23:11:03.055Z,17.88
2018-06-11T23:16:03.327Z,17.88
2018-06-11T23:21:03.912Z,17.88
2018-06-11T23:26:03.023Z,17.88
2018-06-11T23:31:03.300Z,17.88
2018-06-11T23:36:03.795Z,17.88
2018-06-11T23:41:03.343Z,17.58
2018-06-11T23:46:03.627Z,17.58
2018-06-11T23:51:03.106Z,17.58
2018-06-11T23:56:03.301Z,17.58
